createdAt,value
2023-02-14T00:00:09.527Z,5.54
2023-02-14T00:02:35.576Z,5.60
2023-02-14T00:05:01.431Z,5.62
2023-02-14T00:07:27.342Z,5.52
2023-02-14T00:09:53.149Z,5.56
2023-02-14T00:12:19.010Z,5.42
2023-02-14T00:15:03.599Z,5.43
2023-02-14T00:17:29.484Z,5.41
2023-02-14T00:19:55.357Z,5.34
2023-02-14T00:22:21.292Z,5.39
2023-02-14T00:24:47.177Z,5.46
2023-02-14T00:27:12.964Z,5.45
2023-02-14T00:29:38.738Z,5.37
2023-02-14T00:32:04.757Z,5.40
2023-02-14T00:34:32.616Z,5.38
2023-02-14T00:36:59.682Z,5.36
2023-02-14T00:39:25.637Z,5.31
2023-02-14T00:41:51.493Z,5.30
2023-02-14T00:44:17.535Z,5.29
2023-02-14T00:46:43.521Z,5.45
2023-02-14T00:49:09.508Z,5.24
2023-02-14T00:51:35.422Z,5.10
2023-02-14T00:54:01.316Z,5.16
2023-02-14T00:56:27.172Z,5.17
2023-02-14T00:58:53.044Z,5.22
2023-02-14T01:01:19.060Z,5.15
2023-02-14T01:03:45.326Z,5.25
2023-02-14T01:06:11.302Z,5.06
2023-02-14T01:08:37.211Z,5.05
2023-02-14T01:11:15.562Z,5.14
2023-02-14T01:13:42.551Z,4.98
2023-02-14T01:16:11.313Z,4.96
2023-02-14T01:18:37.854Z,4.99
2023-02-14T01:21:16.866Z,5.05
2023-02-14T01:23:43.252Z,4.99
2023-02-14T01:26:09.960Z,5.16
2023-02-14T01:28:36.054Z,5.14
2023-02-14T01:31:06.973Z,5.20
2023-02-14T01:33:32.817Z,5.17
2023-02-14T01:35:59.960Z,5.07
2023-02-14T01:38:25.998Z,4.92
2023-02-14T01:40:51.866Z,4.93
2023-02-14T01:43:17.700Z,5.01
2023-02-14T01:45:43.632Z,4.97
2023-02-14T01:48:10.062Z,4.89
2023-02-14T01:50:41.072Z,4.97
2023-02-14T01:53:15.260Z,4.93
2023-02-14T01:55:47.552Z,4.96
2023-02-14T01:58:18.624Z,4.94
2023-02-14T02:00:57.326Z,4.86
2023-02-14T02:03:39.039Z,4.77
2023-02-14T02:06:14.654Z,4.72
2023-02-14T02:08:45.334Z,4.55
2023-02-14T02:11:11.167Z,4.51
2023-02-14T02:13:37.022Z,4.55
2023-02-14T02:16:50.689Z,4.74
2023-02-14T02:19:56.038Z,4.58
2023-02-14T02:22:45.809Z,4.62
2023-02-14T02:25:44.097Z,4.19
2023-02-14T02:28:48.373Z,4.20
2023-02-14T02:31:35.956Z,4.12
2023-02-14T02:34:33.894Z,4.04
2023-02-14T02:37:17.580Z,4.16
2023-02-14T02:40:08.096Z,4.00
2023-02-14T02:42:55.515Z,4.03
2023-02-14T02:45:28.802Z,4.04
2023-02-14T02:48:29.275Z,4.10
2023-02-14T02:51:16.462Z,4.07
2023-02-14T02:53:50.714Z,3.88
2023-02-14T02:56:45.586Z,3.93
2023-02-14T02:59:35.523Z,3.87
2023-02-14T03:02:22.883Z,3.84
2023-02-14T03:04:57.201Z,3.81
2023-02-14T03:07:39.109Z,3.64
2023-02-14T03:10:15.118Z,3.56
2023-02-14T03:13:14.767Z,3.53
2023-02-14T03:16:01.344Z,3.66
2023-02-14T03:19:10.205Z,3.58
2023-02-14T03:21:58.418Z,3.56
2023-02-14T03:24:27.523Z,3.68
2023-02-14T03:27:24.328Z,3.74
2023-02-14T03:30:13.907Z,3.71
2023-02-14T03:32:59.227Z,3.66
2023-02-14T03:35:34.607Z,3.59
2023-02-14T03:38:10.804Z,3.55
2023-02-14T03:40:40.126Z,3.54
2023-02-14T03:43:16.823Z,3.59
2023-02-14T03:45:54.008Z,3.45
2023-02-14T03:48:23.411Z,3.48
2023-02-14T03:50:51.447Z,3.42
2023-02-14T03:53:21.883Z,3.58
2023-02-14T03:56:00.947Z,3.48
2023-02-14T03:58:32.053Z,3.50
2023-02-14T04:01:03.514Z,3.18
2023-02-14T04:03:31.592Z,3.25
2023-02-14T04:05:58.143Z,3.19
2023-02-14T04:08:26.648Z,3.00
2023-02-14T04:10:55.513Z,2.95
2023-02-14T04:13:21.597Z,3.10
2023-02-14T04:15:47.497Z,3.15
2023-02-14T04:18:31.944Z,3.22
2023-02-14T04:20:57.977Z,3.24
2023-02-14T04:23:24.019Z,3.48
2023-02-14T04:25:49.908Z,3.64
2023-02-14T04:28:15.907Z,3.41
2023-02-14T04:30:41.919Z,3.35
2023-02-14T04:33:07.713Z,3.39
2023-02-14T04:35:34.891Z,3.59
2023-02-14T04:38:01.577Z,3.48
2023-02-14T04:40:27.728Z,3.62
2023-02-14T04:42:53.647Z,3.66
2023-02-14T04:45:19.462Z,3.63
2023-02-14T04:47:45.691Z,3.63
2023-02-14T04:50:12.135Z,3.66
2023-02-14T04:52:38.623Z,3.83
2023-02-14T04:55:06.246Z,3.88
2023-02-14T04:57:32.257Z,3.96
2023-02-14T04:59:58.077Z,3.99
2023-02-14T05:02:26.854Z,4.17
2023-02-14T05:04:52.771Z,4.07
2023-02-14T05:07:18.601Z,4.06
2023-02-14T05:09:44.424Z,3.98
2023-02-14T05:12:10.249Z,4.04
2023-02-14T05:14:36.222Z,4.00
2023-02-14T05:17:02.379Z,3.97
2023-02-14T05:19:28.384Z,4.00
2023-02-14T05:21:54.243Z,3.92
2023-02-14T05:24:20.036Z,4.02
2023-02-14T05:26:45.904Z,4.11
2023-02-14T05:29:11.916Z,4.17
2023-02-14T05:31:37.825Z,4.10
2023-02-14T05:34:03.626Z,4.10
2023-02-14T05:36:29.880Z,4.14
2023-02-14T05:38:55.757Z,4.12
2023-02-14T05:41:21.610Z,4.02
2023-02-14T05:43:47.474Z,3.97
2023-02-14T05:46:13.486Z,4.04
2023-02-14T05:48:39.398Z,3.95
2023-02-14T05:51:09.927Z,3.80
2023-02-14T05:53:36.409Z,3.68
2023-02-14T05:56:02.902Z,3.78
2023-02-14T05:58:28.774Z,3.74
2023-02-14T06:00:56.789Z,3.74
2023-02-14T06:03:22.612Z,3.65
2023-02-14T06:05:48.428Z,3.68
2023-02-14T06:08:14.343Z,3.69
2023-02-14T06:10:40.224Z,3.64
2023-02-14T06:13:08.206Z,3.66
2023-02-14T06:15:35.293Z,3.64
2023-02-14T06:18:01.280Z,3.56
2023-02-14T06:20:27.517Z,3.56
2023-02-14T06:22:54.053Z,3.51
2023-02-14T06:25:21.663Z,3.38
2023-02-14T06:27:49.367Z,3.34
2023-02-14T06:30:16.432Z,3.41
2023-02-14T06:32:42.329Z,3.41
2023-02-14T06:35:08.245Z,3.57
2023-02-14T06:37:34.111Z,3.53
2023-02-14T06:40:01.100Z,3.49
2023-02-14T06:42:27.037Z,3.57
2023-02-14T06:44:53.131Z,3.52
2023-02-14T06:47:19.054Z,3.65
2023-02-14T06:49:44.932Z,3.63
2023-02-14T06:52:10.747Z,3.60
2023-02-14T06:54:36.556Z,3.52
2023-02-14T06:57:02.711Z,3.63
2023-02-14T06:59:29.166Z,3.60
2023-02-14T07:01:54.963Z,3.54
2023-02-14T07:04:20.812Z,3.83
2023-02-14T07:06:46.851Z,3.74
2023-02-14T07:09:17.052Z,3.82
2023-02-14T07:11:44.568Z,3.82
2023-02-14T07:14:10.977Z,3.78
2023-02-14T07:16:36.991Z,3.88
2023-02-14T07:19:02.838Z,4.06
2023-02-14T07:21:29.068Z,4.10
2023-02-14T07:23:54.926Z,4.06
2023-02-14T07:26:20.739Z,3.93
2023-02-14T07:28:48.506Z,3.98
2023-02-14T07:31:16.192Z,3.99
2023-02-14T07:33:42.083Z,4.01
2023-02-14T07:36:08.575Z,4.01
2023-02-14T07:38:35.398Z,4.04
2023-02-14T07:41:01.677Z,4.13
2023-02-14T07:43:27.951Z,4.15
2023-02-14T07:45:53.936Z,4.11
2023-02-14T07:48:19.822Z,4.15
2023-02-14T07:50:45.923Z,4.12
2023-02-14T07:53:11.762Z,4.27
2023-02-14T07:55:38.841Z,4.33
2023-02-14T07:58:04.649Z,4.33
2023-02-14T08:00:30.440Z,4.38
2023-02-14T08:02:56.396Z,4.41
2023-02-14T08:05:22.454Z,4.53
2023-02-14T08:07:48.405Z,4.53
2023-02-14T08:10:14.548Z,4.55
2023-02-14T08:12:58.468Z,4.45
2023-02-14T08:15:52.195Z,4.52
2023-02-14T08:18:20.082Z,4.55
2023-02-14T08:20:50.420Z,4.85
2023-02-14T08:23:17.833Z,4.92
2023-02-14T08:25:43.846Z,4.77
2023-02-14T08:28:09.921Z,4.79
2023-02-14T08:30:37.430Z,4.83
2023-02-14T08:33:04.144Z,5.00
2023-02-14T08:35:29.996Z,4.96
2023-02-14T08:37:55.826Z,4.93
2023-02-14T08:40:21.711Z,4.98
2023-02-14T08:42:47.490Z,5.12
2023-02-14T08:45:13.797Z,5.14
2023-02-14T08:47:39.655Z,5.32
2023-02-14T08:50:08.985Z,5.29
2023-02-14T08:52:34.803Z,5.26
2023-02-14T08:55:02.024Z,5.54
2023-02-14T08:57:28.148Z,5.70
2023-02-14T08:59:54.032Z,5.54
2023-02-14T09:02:20.088Z,5.58
2023-02-14T09:04:46.039Z,5.64
2023-02-14T09:07:12.997Z,5.67
2023-02-14T09:09:39.010Z,5.75
2023-02-14T09:12:06.597Z,5.93
2023-02-14T09:14:37.583Z,6.00
2023-02-14T09:17:05.221Z,6.02
2023-02-14T09:19:36.484Z,6.18
2023-02-14T09:22:04.307Z,6.12
2023-02-14T09:24:31.847Z,6.22
2023-02-14T09:26:58.027Z,6.35
2023-02-14T09:29:24.695Z,6.54
2023-02-14T09:32:00.025Z,6.57
2023-02-14T09:34:27.619Z,6.76
2023-02-14T09:36:53.466Z,6.75
2023-02-14T09:39:19.506Z,6.95
2023-02-14T09:42:11.861Z,7.12
2023-02-14T09:44:56.177Z,7.33
2023-02-14T09:47:29.888Z,7.53
2023-02-14T09:49:57.563Z,7.81
2023-02-14T09:52:27.665Z,7.97
2023-02-14T09:54:57.170Z,8.24
2023-02-14T09:57:38.133Z,8.60
2023-02-14T10:00:39.406Z,9.44
2023-02-14T10:03:31.132Z,10.64
2023-02-14T10:06:35.841Z,12.74
2023-02-14T10:09:25.933Z,15.39
2023-02-14T10:11:53.128Z,20.96
2023-02-14T10:14:27.301Z,22.52
2023-02-14T10:16:59.005Z,26.61
2023-02-14T10:19:27.118Z,29.77
2023-02-14T10:21:57.222Z,31.51
2023-02-14T10:24:47.063Z,30.33
2023-02-14T10:27:35.718Z,31.75
2023-02-14T10:30:10.456Z,34.76
2023-02-14T10:33:01.824Z,35.40
2023-02-14T10:35:42.230Z,32.59
2023-02-14T10:38:26.571Z,33.11
2023-02-14T10:41:22.404Z,34.95
2023-02-14T10:43:57.100Z,37.02
2023-02-14T10:46:58.423Z,36.50
2023-02-14T10:49:36.414Z,36.06
2023-02-14T10:52:26.191Z,38.09
2023-02-14T10:55:04.902Z,37.10
2023-02-14T10:57:33.270Z,37.88
2023-02-14T11:00:23.910Z,35.77
2023-02-14T11:02:58.653Z,35.62
2023-02-14T11:05:32.123Z,33.91
2023-02-14T11:08:01.322Z,35.12
2023-02-14T11:10:33.439Z,34.43
2023-02-14T11:12:59.544Z,34.28
2023-02-14T11:15:30.705Z,32.44
2023-02-14T11:18:23.565Z,35.34
2023-02-14T11:21:03.897Z,38.17
2023-02-14T11:23:39.597Z,38.56
2023-02-14T11:26:29.192Z,39.26
2023-02-14T11:28:59.396Z,38.62
2023-02-14T11:31:31.544Z,39.44
2023-02-14T11:33:58.308Z,39.65
2023-02-14T11:36:25.623Z,37.50
2023-02-14T11:39:13.806Z,34.76
2023-02-14T11:41:55.592Z,35.84
2023-02-14T11:44:24.408Z,34.34
2023-02-14T11:46:53.967Z,33.41
2023-02-14T11:49:34.648Z,36.24
2023-02-14T11:52:10.398Z,33.59
2023-02-14T11:54:39.738Z,32.51
2023-02-14T11:57:32.215Z,31.09
2023-02-14T12:00:01.292Z,31.89
2023-02-14T12:02:39.894Z,31.28
2023-02-14T12:05:14.929Z,29.39
2023-02-14T12:07:43.668Z,30.56
2023-02-14T12:10:12.482Z,29.62
2023-02-14T12:12:51.979Z,29.46
2023-02-14T12:15:38.076Z,28.55
2023-02-14T12:18:36.165Z,28.88
2023-02-14T12:21:17.165Z,28.83
2023-02-14T12:24:13.857Z,30.34
2023-02-14T12:27:21.847Z,32.38
2023-02-14T12:29:58.932Z,32.16
2023-02-14T12:32:31.156Z,31.18
2023-02-14T12:35:15.315Z,31.82
2023-02-14T12:38:05.174Z,30.56
2023-02-14T12:40:46.557Z,31.63
2023-02-14T12:43:33.689Z,28.23
2023-02-14T12:46:38.268Z,30.44
2023-02-14T12:49:04.147Z,33.98
2023-02-14T12:51:39.824Z,34.80
2023-02-14T12:54:11.680Z,31.08
2023-02-14T12:56:43.603Z,29.17
2023-02-14T12:59:15.470Z,32.29
2023-02-14T13:02:15.385Z,33.60
2023-02-14T13:05:12.301Z,32.91
2023-02-14T13:07:49.548Z,32.86
2023-02-14T13:10:39.571Z,33.83
2023-02-14T13:13:17.404Z,35.86
2023-02-14T13:16:12.153Z,33.26
2023-02-14T13:18:37.912Z,33.54
2023-02-14T13:21:08.991Z,32.78
2023-02-14T13:23:41.897Z,33.49
2023-02-14T13:26:27.239Z,33.72
2023-02-14T13:29:01.039Z,33.63
2023-02-14T13:31:27.749Z,33.74
2023-02-14T13:34:00.065Z,34.12
2023-02-14T13:36:26.554Z,33.83
2023-02-14T13:41:28.136Z,33.78
2023-02-14T13:43:57.981Z,30.42
2023-02-14T13:46:50.270Z,30.10
2023-02-14T13:49:19.051Z,30.52
2023-02-14T13:51:51.847Z,28.23
2023-02-14T13:54:29.456Z,25.99
2023-02-14T13:56:56.475Z,24.40
2023-02-14T13:59:34.845Z,23.58
2023-02-14T14:02:27.620Z,21.00
2023-02-14T14:04:54.824Z,19.80
2023-02-14T14:07:30.095Z,18.31
2023-02-14T14:09:59.301Z,16.59
2023-02-14T14:12:27.920Z,15.99
2023-02-14T14:15:06.018Z,15.20
2023-02-14T14:17:36.984Z,15.01
2023-02-14T14:20:15.183Z,14.84
2023-02-14T14:22:59.377Z,14.54
2023-02-14T14:25:35.585Z,14.56
2023-02-14T14:28:01.398Z,14.35
2023-02-14T14:30:32.315Z,14.31
2023-02-14T14:33:16.412Z,13.94
2023-02-14T14:36:02.386Z,13.73
2023-02-14T14:38:30.372Z,13.83
2023-02-14T14:40:57.069Z,13.82
2023-02-14T14:43:34.325Z,13.53
2023-02-14T14:46:01.754Z,13.57
2023-02-14T14:48:38.715Z,13.57
2023-02-14T14:51:16.333Z,13.43
2023-02-14T14:54:07.782Z,13.45
2023-02-14T14:56:49.108Z,13.47
2023-02-14T14:59:22.727Z,13.29
2023-02-14T15:01:50.741Z,13.30
2023-02-14T15:04:24.203Z,13.27
2023-02-14T15:06:51.169Z,13.11
2023-02-14T15:09:31.069Z,13.09
2023-02-14T15:12:19.116Z,13.09
2023-02-14T15:14:53.892Z,13.10
2023-02-14T15:17:32.175Z,13.01
2023-02-14T15:20:06.020Z,13.10
2023-02-14T15:22:50.273Z,12.83
2023-02-14T15:25:20.914Z,12.73
2023-02-14T15:27:47.376Z,12.67
2023-02-14T15:30:19.387Z,12.65
2023-02-14T15:32:48.777Z,12.51
2023-02-14T15:35:17.063Z,12.50
2023-02-14T15:37:44.559Z,12.58
2023-02-14T15:40:19.354Z,12.47
2023-02-14T15:42:45.669Z,12.49
2023-02-14T15:45:22.996Z,12.40
2023-02-14T15:47:55.209Z,12.23
2023-02-14T15:50:25.349Z,12.37
2023-02-14T15:52:59.377Z,12.26
2023-02-14T15:55:26.879Z,12.16
2023-02-14T15:58:05.160Z,12.07
2023-02-14T16:00:31.937Z,12.00
2023-02-14T16:03:11.415Z,11.81
2023-02-14T16:05:37.572Z,11.68
2023-02-14T16:08:07.126Z,11.68
2023-02-14T16:10:35.215Z,11.66
2023-02-14T16:13:04.362Z,11.72
2023-02-14T16:15:33.072Z,11.55
2023-02-14T16:18:00.414Z,11.57
2023-02-14T16:20:39.334Z,11.55
2023-02-14T16:23:21.511Z,11.50
2023-02-14T16:25:48.007Z,11.36
2023-02-14T16:28:14.351Z,11.28
2023-02-14T16:30:41.916Z,11.06
2023-02-14T16:33:18.409Z,11.13
2023-02-14T16:35:45.216Z,10.93
2023-02-14T16:38:19.256Z,10.86
2023-02-14T16:40:51.206Z,10.44
2023-02-14T16:43:18.826Z,10.59
2023-02-14T16:45:45.616Z,10.35
2023-02-14T16:48:14.986Z,10.44
2023-02-14T16:50:41.681Z,10.44
2023-02-14T16:53:31.613Z,10.53
2023-02-14T16:55:57.523Z,10.46
2023-02-14T16:58:29.140Z,10.28
2023-02-14T17:00:57.401Z,9.88
2023-02-14T17:03:23.317Z,9.76
2023-02-14T17:05:49.621Z,9.61
2023-02-14T17:08:16.175Z,9.54
2023-02-14T17:10:44.337Z,9.55
2023-02-14T17:13:10.979Z,9.54
2023-02-14T17:15:38.041Z,9.42
2023-02-14T17:18:09.251Z,9.36
2023-02-14T17:20:35.879Z,9.33
2023-02-14T17:23:01.766Z,9.29
2023-02-14T17:25:27.925Z,9.03
2023-02-14T17:27:55.996Z,9.05
2023-02-14T17:30:22.697Z,9.05
2023-02-14T17:32:51.644Z,9.01
2023-02-14T17:35:18.218Z,9.02
2023-02-14T17:37:44.591Z,8.92
2023-02-14T17:40:11.570Z,8.83
2023-02-14T17:42:38.086Z,8.68
2023-02-14T17:45:05.874Z,8.63
2023-02-14T17:47:32.517Z,8.48
2023-02-14T17:49:58.427Z,8.32
2023-02-14T17:52:24.712Z,8.29
2023-02-14T17:54:50.626Z,8.29
2023-02-14T17:57:16.804Z,8.24
2023-02-14T17:59:44.554Z,8.25
2023-02-14T18:02:10.423Z,8.25
2023-02-14T18:04:36.598Z,8.05
2023-02-14T18:07:03.792Z,8.08
2023-02-14T18:09:29.948Z,8.00
2023-02-14T18:11:55.856Z,7.91
2023-02-14T18:14:22.012Z,7.88
2023-02-14T18:16:48.094Z,7.93
2023-02-14T18:19:15.302Z,7.95
2023-02-14T18:21:42.560Z,7.89
2023-02-14T18:24:09.626Z,7.86
2023-02-14T18:26:37.016Z,7.99
2023-02-14T18:29:05.920Z,7.86
2023-02-14T18:31:36.929Z,7.87
2023-02-14T18:34:04.545Z,7.87
2023-02-14T18:36:31.800Z,7.66
2023-02-14T18:38:58.663Z,7.73
2023-02-14T18:41:25.778Z,7.72
2023-02-14T18:43:51.771Z,7.68
2023-02-14T18:46:20.563Z,7.59
2023-02-14T18:48:46.956Z,7.61
2023-02-14T18:51:24.789Z,7.67
2023-02-14T18:53:51.515Z,7.61
2023-02-14T18:56:28.002Z,7.62
2023-02-14T18:58:59.194Z,7.45
2023-02-14T19:01:28.793Z,7.51
2023-02-14T19:03:55.822Z,7.49
2023-02-14T19:06:21.957Z,7.53
2023-02-14T19:08:48.677Z,7.49
2023-02-14T19:11:24.178Z,7.38
2023-02-14T19:13:54.098Z,7.35
2023-02-14T19:16:23.373Z,7.45
2023-02-14T19:18:49.700Z,7.37
2023-02-14T19:21:21.827Z,7.30
2023-02-14T19:23:48.682Z,7.42
2023-02-14T19:26:18.254Z,7.44
2023-02-14T19:28:48.244Z,7.51
2023-02-14T19:31:15.007Z,7.53
2023-02-14T19:33:44.103Z,7.41
2023-02-14T19:36:14.761Z,7.24
2023-02-14T19:38:42.891Z,7.15
2023-02-14T19:41:18.431Z,7.12
2023-02-14T19:43:45.311Z,7.03
2023-02-14T19:46:15.274Z,6.82
2023-02-14T19:48:41.840Z,6.78
2023-02-14T19:51:07.993Z,6.81
2023-02-14T19:53:34.322Z,6.55
2023-02-14T19:56:00.501Z,6.76
2023-02-14T19:58:26.486Z,6.61
2023-02-14T20:00:59.147Z,6.52
2023-02-14T20:03:26.248Z,6.48
2023-02-14T20:05:52.146Z,6.29
2023-02-14T20:08:18.188Z,6.12
2023-02-14T20:10:44.808Z,6.06
2023-02-14T20:13:11.159Z,6.17
2023-02-14T20:15:37.112Z,6.04
2023-02-14T20:18:03.786Z,6.03
2023-02-14T20:20:49.951Z,5.95
2023-02-14T20:23:15.870Z,5.95
2023-02-14T20:25:41.793Z,6.00
2023-02-14T20:28:07.705Z,6.15
2023-02-14T20:30:33.596Z,6.17
2023-02-14T20:32:59.653Z,6.27
2023-02-14T20:35:25.649Z,6.17
2023-02-14T20:37:51.832Z,6.19
2023-02-14T20:40:18.792Z,6.14
2023-02-14T20:42:47.744Z,6.23
2023-02-14T20:45:13.667Z,6.03
2023-02-14T20:47:39.635Z,5.98
2023-02-14T20:50:06.435Z,5.82
2023-02-14T20:52:35.530Z,5.97
2023-02-14T20:55:01.418Z,5.84
2023-02-14T20:57:29.058Z,5.78
2023-02-14T20:59:55.038Z,5.63
2023-02-14T21:02:20.988Z,5.66
2023-02-14T21:04:46.827Z,5.71
2023-02-14T21:07:12.730Z,5.61
2023-02-14T21:09:38.851Z,5.58
2023-02-14T21:12:06.074Z,5.42
2023-02-14T21:14:32.103Z,5.52
2023-02-14T21:16:57.964Z,5.39
2023-02-14T21:19:23.784Z,5.36
2023-02-14T21:21:49.896Z,5.34
2023-02-14T21:24:16.161Z,5.13
2023-02-14T21:26:43.102Z,5.09
2023-02-14T21:29:09.470Z,4.96
2023-02-14T21:31:36.189Z,5.08
2023-02-14T21:34:02.666Z,5.12
2023-02-14T21:36:31.370Z,5.05
2023-02-14T21:38:59.097Z,4.97
2023-02-14T21:41:28.143Z,5.05
2023-02-14T21:43:58.474Z,4.96
2023-02-14T21:46:30.072Z,4.78
2023-02-14T21:49:19.141Z,4.77
2023-02-14T21:51:46.241Z,4.87
2023-02-14T21:54:13.021Z,4.92
2023-02-14T21:56:40.698Z,4.92
2023-02-14T21:59:08.265Z,4.94
2023-02-14T22:01:36.426Z,5.08
2023-02-14T22:04:07.061Z,5.05
2023-02-14T22:06:35.540Z,5.22
2023-02-14T22:09:01.430Z,5.14
2023-02-14T22:11:28.816Z,5.24
2023-02-14T22:13:55.680Z,5.27
2023-02-14T22:16:24.056Z,5.35
2023-02-14T22:18:50.645Z,5.34
2023-02-14T22:21:24.946Z,5.41
2023-02-14T22:23:51.347Z,5.37
2023-02-14T22:26:18.949Z,5.39
2023-02-14T22:28:47.264Z,5.38
2023-02-14T22:31:14.949Z,5.41
2023-02-14T22:33:40.902Z,5.25
2023-02-14T22:36:07.751Z,5.40
2023-02-14T22:38:34.531Z,5.35
2023-02-14T22:41:12.007Z,5.35
2023-02-14T22:43:38.949Z,5.37
2023-02-14T22:46:07.089Z,5.28
2023-02-14T22:48:35.501Z,5.31
2023-02-14T22:51:32.308Z,5.37
2023-02-14T22:54:09.318Z,5.41
2023-02-14T22:56:38.926Z,5.51
2023-02-14T22:59:08.178Z,5.38
2023-02-14T23:01:35.204Z,5.46
2023-02-14T23:04:03.041Z,5.61
2023-02-14T23:06:31.131Z,5.49
2023-02-14T23:08:57.134Z,5.51
2023-02-14T23:11:25.990Z,5.66
2023-02-14T23:14:10.609Z,5.75
2023-02-14T23:16:55.171Z,5.70
2023-02-14T23:19:42.383Z,5.67
2023-02-14T23:22:13.671Z,5.70
2023-02-14T23:24:39.940Z,5.79
2023-02-14T23:27:07.255Z,5.88
2023-02-14T23:29:33.438Z,5.87
2023-02-14T23:31:59.334Z,5.91
2023-02-14T23:34:27.140Z,5.94
2023-02-14T23:36:53.123Z,6.12
2023-02-14T23:39:18.918Z,5.97
2023-02-14T23:41:47.563Z,5.90
2023-02-14T23:44:15.589Z,5.81
2023-02-14T23:46:41.522Z,5.80
2023-02-14T23:49:07.650Z,5.63
2023-02-14T23:51:34.286Z,5.62
2023-02-14T23:54:00.527Z,5.61
2023-02-14T23:56:26.700Z,5.63
2023-02-14T23:58:52.685Z,5.55
